ARG1504 SACO-SASA
Flight info
| Callsign | ARG1504 |
|---|---|
| Flight time | 1h 10m |
| Altitude | FL360 |
| Route | DONK1C DONKA UW5 TUC UT675 ILPAR ILPA2M |
| Aircraft | B38M/M-SDE2E3FGHIRWXY/LB1 |
Departure
| Time | 2026-04-22 23:38 |
|---|---|
| Airport | Ingeniero Aeronáutico Ambrosio L.V. Taravella International Airport (SACO) |
Arrival
| Time | 2026-04-23 00:49 |
|---|---|
| Airport | Martín Miguel de Güemes International Airport (SASA) |
| Time | Latitude | Longitude | Altitude | Speed | Heading |
|---|---|---|---|---|---|
| 2026-04-22 23:12 | -31.31551 | -64.21167 | 1615 ft | 0 kts | 258° |
| 2026-04-22 23:24 | -31.31549 | -64.21157 | 1624 ft | 4 kts | 256° |
| 2026-04-22 23:24 | -31.31541 | -64.21127 | 1620 ft | 4 kts | 245° |
| 2026-04-22 23:25 | -31.31527 | -64.21100 | 1621 ft | 4 kts | 228° |
| 2026-04-22 23:25 | -31.31506 | -64.21082 | 1623 ft | 4 kts | 199° |
| 2026-04-22 23:25 | -31.31494 | -64.21079 | 1618 ft | 0 kts | 183° |
| 2026-04-22 23:34 | -31.31501 | -64.21079 | 1617 ft | 3 kts | 181° |
| 2026-04-22 23:35 | -31.31536 | -64.21079 | 1623 ft | 7 kts | 179° |
| 2026-04-22 23:35 | -31.31597 | -64.21102 | 1620 ft | 12 kts | 195° |
| 2026-04-22 23:35 | -31.31692 | -64.21103 | 1617 ft | 16 kts | 168° |
| 2026-04-22 23:35 | -31.31800 | -64.21030 | 1615 ft | 20 kts | 159° |
| 2026-04-22 23:36 | -31.31946 | -64.21024 | 1619 ft | 23 kts | 181° |
| 2026-04-22 23:36 | -31.32113 | -64.21024 | 1622 ft | 25 kts | 179° |
| 2026-04-22 23:36 | -31.32296 | -64.21021 | 1624 ft | 23 kts | 179° |
| 2026-04-22 23:36 | -31.32395 | -64.21007 | 1620 ft | 14 kts | 152° |
| 2026-04-22 23:37 | -31.32433 | -64.20899 | 1619 ft | 16 kts | 76° |
| 2026-04-22 23:37 | -31.32361 | -64.20824 | 1617 ft | 16 kts | 15° |
| 2026-04-22 23:37 | -31.32133 | -64.20818 | 1622 ft | 72 kts | 359° |
| 2026-04-22 23:37 | -31.31342 | -64.20832 | 1617 ft | 152 kts | 359° |
| 2026-04-22 23:38 | -31.30129 | -64.20833 | 2026 ft | 178 kts | 2° |
| 2026-04-22 23:38 | -31.28907 | -64.20797 | 3202 ft | 171 kts | 359° |
| 2026-04-22 23:38 | -31.27675 | -64.20826 | 3979 ft | 188 kts | 359° |
| 2026-04-22 23:38 | -31.26281 | -64.20856 | 4625 ft | 215 kts | 360° |
| 2026-04-22 23:39 | -31.24678 | -64.20888 | 5303 ft | 245 kts | 359° |
| 2026-04-22 23:39 | -31.22905 | -64.20922 | 6155 ft | 266 kts | 359° |
| 2026-04-22 23:39 | -31.21002 | -64.20969 | 7096 ft | 279 kts | 355° |
| 2026-04-22 23:39 | -31.19162 | -64.21615 | 8292 ft | 280 kts | 328° |
| 2026-04-22 23:40 | -31.17585 | -64.22968 | 9418 ft | 285 kts | 320° |
| 2026-04-22 23:40 | -31.16005 | -64.24397 | 10487 ft | 292 kts | 320° |
| 2026-04-22 23:40 | -31.14363 | -64.25896 | 11252 ft | 308 kts | 320° |
| 2026-04-22 23:40 | -31.12655 | -64.27462 | 12150 ft | 316 kts | 319° |
| 2026-04-22 23:41 | -31.10932 | -64.29047 | 13281 ft | 317 kts | 319° |
| 2026-04-22 23:41 | -31.09192 | -64.30649 | 14317 ft | 321 kts | 318° |
| 2026-04-22 23:41 | -31.07432 | -64.32267 | 15298 ft | 324 kts | 318° |
| 2026-04-22 23:41 | -31.05659 | -64.33898 | 16279 ft | 327 kts | 318° |
| 2026-04-22 23:42 | -31.03869 | -64.35544 | 17235 ft | 330 kts | 318° |
| 2026-04-22 23:42 | -31.01964 | -64.37063 | 18157 ft | 338 kts | 330° |
| 2026-04-22 23:42 | -30.99675 | -64.37802 | 19047 ft | 349 kts | 349° |
| 2026-04-22 23:42 | -30.97232 | -64.37927 | 19847 ft | 354 kts | 352° |
| 2026-04-22 23:43 | -30.94757 | -64.38022 | 20611 ft | 358 kts | 353° |
| 2026-04-22 23:43 | -30.92267 | -64.38101 | 21409 ft | 361 kts | 352° |
| 2026-04-22 23:43 | -30.89751 | -64.38171 | 22165 ft | 364 kts | 352° |
| 2026-04-22 23:43 | -30.87214 | -64.38237 | 22923 ft | 367 kts | 352° |
| 2026-04-22 23:44 | -30.84665 | -64.38301 | 23680 ft | 368 kts | 352° |
| 2026-04-22 23:44 | -30.82098 | -64.38364 | 24277 ft | 372 kts | 352° |
| 2026-04-22 23:44 | -30.79505 | -64.38427 | 24929 ft | 373 kts | 351° |
| 2026-04-22 23:44 | -30.76911 | -64.38488 | 25561 ft | 374 kts | 351° |
| 2026-04-22 23:45 | -30.74308 | -64.38551 | 26198 ft | 376 kts | 351° |
| 2026-04-22 23:45 | -30.71692 | -64.38613 | 26824 ft | 378 kts | 350° |
| 2026-04-22 23:45 | -30.69063 | -64.38675 | 27439 ft | 379 kts | 350° |
| 2026-04-22 23:45 | -30.66422 | -64.38738 | 28029 ft | 381 kts | 349° |
| 2026-04-22 23:46 | -30.63771 | -64.38800 | 28627 ft | 383 kts | 349° |
| 2026-04-22 23:46 | -30.61103 | -64.38863 | 29200 ft | 385 kts | 349° |
| 2026-04-22 23:46 | -30.58422 | -64.38927 | 29762 ft | 387 kts | 349° |
| 2026-04-22 23:46 | -30.55729 | -64.38990 | 30309 ft | 389 kts | 349° |
| 2026-04-22 23:47 | -30.53018 | -64.39053 | 30759 ft | 391 kts | 348° |
| 2026-04-22 23:47 | -30.50296 | -64.39116 | 31218 ft | 393 kts | 348° |
| 2026-04-22 23:47 | -30.47562 | -64.39180 | 31686 ft | 395 kts | 348° |
| 2026-04-22 23:47 | -30.44817 | -64.39244 | 32132 ft | 396 kts | 348° |
| 2026-04-22 23:48 | -30.42059 | -64.39308 | 32578 ft | 398 kts | 348° |
| 2026-04-22 23:48 | -30.39352 | -64.39667 | 32981 ft | 388 kts | 339° |
| 2026-04-22 23:48 | -30.36692 | -64.40251 | 33417 ft | 391 kts | 340° |
| 2026-04-22 23:48 | -30.34023 | -64.40815 | 34007 ft | 389 kts | 340° |
| 2026-04-22 23:49 | -30.31379 | -64.41378 | 34575 ft | 386 kts | 339° |
| 2026-04-22 23:49 | -30.28753 | -64.41940 | 35093 ft | 384 kts | 339° |
| 2026-04-22 23:49 | -30.26137 | -64.42499 | 35551 ft | 382 kts | 339° |
| 2026-04-22 23:49 | -30.23534 | -64.43056 | 35999 ft | 381 kts | 339° |
| 2026-04-22 23:50 | -30.20920 | -64.43614 | 36176 ft | 382 kts | 339° |
| 2026-04-22 23:50 | -30.18324 | -64.44168 | 36199 ft | 379 kts | 339° |
| 2026-04-22 23:50 | -30.13167 | -64.45269 | 36197 ft | 377 kts | 339° |
| 2026-04-22 23:51 | -30.08016 | -64.46367 | 36188 ft | 377 kts | 339° |
| 2026-04-22 23:51 | -30.02867 | -64.47463 | 36192 ft | 377 kts | 339° |
| 2026-04-22 23:52 | -29.97717 | -64.48559 | 36188 ft | 377 kts | 339° |
| 2026-04-22 23:52 | -29.92550 | -64.49595 | 36184 ft | 378 kts | 340° |
| 2026-04-22 23:53 | -29.87365 | -64.50578 | 36188 ft | 378 kts | 340° |
| 2026-04-22 23:53 | -29.82184 | -64.51565 | 36186 ft | 378 kts | 340° |
| 2026-04-22 23:54 | -29.77004 | -64.52551 | 36183 ft | 378 kts | 340° |
| 2026-04-22 23:54 | -29.71827 | -64.53535 | 36185 ft | 378 kts | 340° |
| 2026-04-22 23:55 | -29.66655 | -64.54518 | 36182 ft | 377 kts | 340° |
| 2026-04-22 23:55 | -29.61480 | -64.55500 | 36181 ft | 377 kts | 340° |
| 2026-04-22 23:56 | -29.56356 | -64.56608 | 36188 ft | 375 kts | 339° |
| 2026-04-22 23:56 | -29.51236 | -64.57729 | 36184 ft | 375 kts | 339° |
| 2026-04-22 23:57 | -29.46115 | -64.58846 | 36180 ft | 375 kts | 339° |
| 2026-04-22 23:57 | -29.40998 | -64.59960 | 36185 ft | 375 kts | 339° |
| 2026-04-22 23:58 | -29.35885 | -64.61073 | 36181 ft | 375 kts | 339° |
| 2026-04-22 23:58 | -29.30775 | -64.62183 | 36179 ft | 374 kts | 339° |
| 2026-04-22 23:59 | -29.25667 | -64.63293 | 36180 ft | 374 kts | 339° |
| 2026-04-22 23:59 | -29.20559 | -64.64401 | 36193 ft | 374 kts | 339° |
| 2026-04-23 00:00 | -29.12897 | -64.66061 | 36180 ft | 375 kts | 339° |
| 2026-04-23 00:01 | -29.07786 | -64.67166 | 36191 ft | 374 kts | 339° |
| 2026-04-23 00:01 | -29.02678 | -64.68271 | 36186 ft | 374 kts | 339° |
| 2026-04-23 00:02 | -28.97570 | -64.69373 | 36187 ft | 374 kts | 339° |
| 2026-04-23 00:02 | -28.92459 | -64.70476 | 36188 ft | 375 kts | 339° |
| 2026-04-23 00:03 | -28.87349 | -64.71577 | 36190 ft | 375 kts | 339° |
| 2026-04-23 00:03 | -28.82240 | -64.72677 | 36192 ft | 374 kts | 339° |
| 2026-04-23 00:04 | -28.77127 | -64.73776 | 36193 ft | 375 kts | 339° |
| 2026-04-23 00:04 | -28.72012 | -64.74875 | 36193 ft | 375 kts | 339° |
| 2026-04-23 00:05 | -28.66889 | -64.75975 | 36200 ft | 375 kts | 339° |
| 2026-04-23 00:05 | -28.61746 | -64.77011 | 36197 ft | 377 kts | 341° |
| 2026-04-23 00:06 | -28.56579 | -64.77971 | 36194 ft | 377 kts | 341° |
| 2026-04-23 00:06 | -28.51406 | -64.78940 | 36193 ft | 378 kts | 341° |
| 2026-04-23 00:07 | -28.46236 | -64.79907 | 36195 ft | 378 kts | 341° |
| 2026-04-23 00:07 | -28.41057 | -64.80876 | 36194 ft | 378 kts | 341° |
| 2026-04-23 00:08 | -28.35878 | -64.81844 | 36196 ft | 378 kts | 341° |
| 2026-04-23 00:08 | -28.30695 | -64.82811 | 36193 ft | 378 kts | 341° |
| 2026-04-23 00:09 | -28.25507 | -64.83778 | 36195 ft | 378 kts | 341° |
| 2026-04-23 00:09 | -28.20324 | -64.84744 | 36190 ft | 379 kts | 341° |
| 2026-04-23 00:10 | -28.15129 | -64.85711 | 36191 ft | 379 kts | 341° |
| 2026-04-23 00:10 | -28.09937 | -64.86676 | 36190 ft | 379 kts | 341° |
| 2026-04-23 00:11 | -28.04738 | -64.87641 | 36190 ft | 379 kts | 341° |
| 2026-04-23 00:11 | -27.99534 | -64.88607 | 36192 ft | 380 kts | 341° |
| 2026-04-23 00:12 | -27.94330 | -64.89571 | 36184 ft | 380 kts | 341° |
| 2026-04-23 00:12 | -27.89123 | -64.90536 | 36184 ft | 380 kts | 341° |
| 2026-04-23 00:13 | -27.83910 | -64.91501 | 36182 ft | 380 kts | 341° |
| 2026-04-23 00:13 | -27.78696 | -64.92464 | 36179 ft | 380 kts | 341° |
| 2026-04-23 00:14 | -27.73492 | -64.93456 | 36181 ft | 380 kts | 341° |
| 2026-04-23 00:14 | -27.68294 | -64.94484 | 36183 ft | 380 kts | 341° |
| 2026-04-23 00:15 | -27.63096 | -64.95507 | 36182 ft | 380 kts | 341° |
| 2026-04-23 00:15 | -27.57901 | -64.96529 | 36177 ft | 380 kts | 341° |
| 2026-04-23 00:16 | -27.52698 | -64.97551 | 36180 ft | 381 kts | 341° |
| 2026-04-23 00:16 | -27.47489 | -64.98573 | 36185 ft | 381 kts | 341° |
| 2026-04-23 00:17 | -27.42280 | -64.99594 | 36180 ft | 381 kts | 341° |
| 2026-04-23 00:17 | -27.37061 | -65.00617 | 36188 ft | 382 kts | 341° |
| 2026-04-23 00:18 | -27.31837 | -65.01639 | 36177 ft | 382 kts | 341° |
| 2026-04-23 00:18 | -27.26609 | -65.02661 | 36187 ft | 382 kts | 341° |
| 2026-04-23 00:19 | -27.21379 | -65.03683 | 36178 ft | 382 kts | 341° |
| 2026-04-23 00:19 | -27.16142 | -65.04705 | 36186 ft | 383 kts | 341° |
| 2026-04-23 00:20 | -27.10902 | -65.05726 | 36188 ft | 383 kts | 341° |
| 2026-04-23 00:20 | -27.05657 | -65.06748 | 36195 ft | 384 kts | 341° |
| 2026-04-23 00:21 | -27.00404 | -65.07770 | 36201 ft | 384 kts | 341° |
| 2026-04-23 00:21 | -26.95149 | -65.08791 | 36207 ft | 384 kts | 341° |
| 2026-04-23 00:22 | -26.89943 | -65.09802 | 35729 ft | 374 kts | 341° |
| 2026-04-23 00:22 | -26.87418 | -65.10292 | 35440 ft | 365 kts | 341° |
| 2026-04-23 00:22 | -26.84933 | -65.10755 | 34995 ft | 364 kts | 344° |
| 2026-04-23 00:22 | -26.82357 | -65.10800 | 34420 ft | 373 kts | 351° |
| 2026-04-23 00:23 | -26.79775 | -65.10768 | 33890 ft | 371 kts | 351° |
| 2026-04-23 00:23 | -26.77207 | -65.10737 | 33369 ft | 369 kts | 351° |
| 2026-04-23 00:23 | -26.74655 | -65.10703 | 32867 ft | 366 kts | 351° |
| 2026-04-23 00:23 | -26.72117 | -65.10668 | 32373 ft | 364 kts | 351° |
| 2026-04-23 00:24 | -26.69595 | -65.10634 | 31883 ft | 362 kts | 352° |
| 2026-04-23 00:24 | -26.67085 | -65.10598 | 31397 ft | 361 kts | 352° |
| 2026-04-23 00:24 | -26.64582 | -65.10563 | 30909 ft | 359 kts | 352° |
| 2026-04-23 00:24 | -26.62094 | -65.10529 | 30444 ft | 358 kts | 353° |
| 2026-04-23 00:25 | -26.59610 | -65.10494 | 29913 ft | 357 kts | 353° |
| 2026-04-23 00:25 | -26.57139 | -65.10460 | 29376 ft | 355 kts | 353° |
| 2026-04-23 00:25 | -26.54686 | -65.10425 | 28895 ft | 351 kts | 353° |
| 2026-04-23 00:25 | -26.52266 | -65.10391 | 28476 ft | 347 kts | 353° |
| 2026-04-23 00:26 | -26.49865 | -65.10358 | 28032 ft | 345 kts | 353° |
| 2026-04-23 00:26 | -26.47473 | -65.10324 | 27582 ft | 344 kts | 353° |
| 2026-04-23 00:26 | -26.45093 | -65.10291 | 27150 ft | 342 kts | 353° |
| 2026-04-23 00:26 | -26.42727 | -65.10258 | 26729 ft | 339 kts | 353° |
| 2026-04-23 00:27 | -26.40383 | -65.10225 | 26324 ft | 337 kts | 353° |
| 2026-04-23 00:27 | -26.38027 | -65.10193 | 25903 ft | 341 kts | 354° |
| 2026-04-23 00:27 | -26.35646 | -65.10160 | 25486 ft | 345 kts | 354° |
| 2026-04-23 00:27 | -26.33249 | -65.10126 | 25074 ft | 346 kts | 354° |
| 2026-04-23 00:28 | -26.30848 | -65.10093 | 24672 ft | 345 kts | 354° |
| 2026-04-23 00:28 | -26.28453 | -65.10059 | 24277 ft | 345 kts | 354° |
| 2026-04-23 00:28 | -26.26061 | -65.10026 | 23884 ft | 344 kts | 354° |
| 2026-04-23 00:28 | -26.23670 | -65.09993 | 23432 ft | 344 kts | 354° |
| 2026-04-23 00:29 | -26.21288 | -65.09960 | 23001 ft | 342 kts | 355° |
| 2026-04-23 00:29 | -26.18917 | -65.09927 | 22611 ft | 340 kts | 355° |
| 2026-04-23 00:29 | -26.16567 | -65.09894 | 22236 ft | 337 kts | 355° |
| 2026-04-23 00:29 | -26.14236 | -65.09862 | 21860 ft | 334 kts | 355° |
| 2026-04-23 00:30 | -26.11922 | -65.09830 | 21503 ft | 332 kts | 355° |
| 2026-04-23 00:30 | -26.09627 | -65.09798 | 21149 ft | 329 kts | 355° |
| 2026-04-23 00:30 | -26.07352 | -65.09766 | 20799 ft | 327 kts | 355° |
| 2026-04-23 00:30 | -26.05090 | -65.09735 | 20452 ft | 324 kts | 355° |
| 2026-04-23 00:31 | -26.02846 | -65.09704 | 20105 ft | 322 kts | 355° |
| 2026-04-23 00:31 | -26.00617 | -65.09673 | 19764 ft | 320 kts | 356° |
| 2026-04-23 00:31 | -25.98400 | -65.09642 | 19425 ft | 319 kts | 356° |
| 2026-04-23 00:31 | -25.96192 | -65.09612 | 19086 ft | 317 kts | 356° |
| 2026-04-23 00:32 | -25.93996 | -65.09581 | 18750 ft | 315 kts | 356° |
| 2026-04-23 00:32 | -25.91811 | -65.09551 | 18405 ft | 314 kts | 356° |
| 2026-04-23 00:32 | -25.89636 | -65.09521 | 18032 ft | 313 kts | 356° |
| 2026-04-23 00:32 | -25.87457 | -65.09491 | 17671 ft | 316 kts | 357° |
| 2026-04-23 00:33 | -25.85247 | -65.09460 | 17325 ft | 320 kts | 357° |
| 2026-04-23 00:33 | -25.83021 | -65.09429 | 16982 ft | 321 kts | 358° |
| 2026-04-23 00:33 | -25.80794 | -65.09399 | 16647 ft | 320 kts | 358° |
| 2026-04-23 00:33 | -25.78581 | -65.09368 | 16312 ft | 317 kts | 358° |
| 2026-04-23 00:34 | -25.76390 | -65.09337 | 15975 ft | 314 kts | 359° |
| 2026-04-23 00:34 | -25.74214 | -65.09307 | 15643 ft | 312 kts | 359° |
| 2026-04-23 00:34 | -25.72054 | -65.09278 | 15314 ft | 310 kts | 359° |
| 2026-04-23 00:34 | -25.69950 | -65.09580 | 15081 ft | 306 kts | 339° |
| 2026-04-23 00:35 | -25.68047 | -65.10637 | 14889 ft | 310 kts | 330° |
| 2026-04-23 00:35 | -25.66162 | -65.11805 | 14710 ft | 311 kts | 330° |
| 2026-04-23 00:35 | -25.64284 | -65.12994 | 14533 ft | 312 kts | 330° |
| 2026-04-23 00:35 | -25.62412 | -65.14194 | 14346 ft | 311 kts | 330° |
| 2026-04-23 00:36 | -25.60546 | -65.15401 | 14162 ft | 311 kts | 329° |
| 2026-04-23 00:36 | -25.58683 | -65.16611 | 13965 ft | 311 kts | 329° |
| 2026-04-23 00:36 | -25.56824 | -65.17822 | 13764 ft | 310 kts | 329° |
| 2026-04-23 00:36 | -25.54969 | -65.19031 | 13566 ft | 309 kts | 329° |
| 2026-04-23 00:37 | -25.53125 | -65.20234 | 13386 ft | 308 kts | 329° |
| 2026-04-23 00:37 | -25.51283 | -65.21433 | 13201 ft | 307 kts | 330° |
| 2026-04-23 00:37 | -25.49455 | -65.22624 | 13019 ft | 306 kts | 330° |
| 2026-04-23 00:37 | -25.47624 | -65.23816 | 12838 ft | 305 kts | 330° |
| 2026-04-23 00:38 | -25.45801 | -65.25003 | 12665 ft | 304 kts | 330° |
| 2026-04-23 00:38 | -25.43986 | -65.26185 | 12482 ft | 303 kts | 330° |
| 2026-04-23 00:38 | -25.42175 | -65.27364 | 12309 ft | 302 kts | 330° |
| 2026-04-23 00:38 | -25.40368 | -65.28539 | 12148 ft | 302 kts | 330° |
| 2026-04-23 00:39 | -25.38567 | -65.29709 | 11955 ft | 300 kts | 330° |
| 2026-04-23 00:39 | -25.36771 | -65.30877 | 11790 ft | 299 kts | 330° |
| 2026-04-23 00:39 | -25.34983 | -65.32039 | 11627 ft | 299 kts | 330° |
| 2026-04-23 00:39 | -25.33197 | -65.33198 | 11465 ft | 298 kts | 330° |
| 2026-04-23 00:40 | -25.31418 | -65.34354 | 11314 ft | 297 kts | 330° |
| 2026-04-23 00:40 | -25.29644 | -65.35505 | 11118 ft | 297 kts | 331° |
| 2026-04-23 00:40 | -25.27862 | -65.36661 | 10800 ft | 297 kts | 331° |
| 2026-04-23 00:40 | -25.26092 | -65.37809 | 10509 ft | 294 kts | 331° |
| 2026-04-23 00:41 | -25.24345 | -65.38941 | 10217 ft | 290 kts | 332° |
| 2026-04-23 00:41 | -25.22621 | -65.40059 | 9934 ft | 286 kts | 331° |
| 2026-04-23 00:41 | -25.20911 | -65.41167 | 9544 ft | 285 kts | 331° |
| 2026-04-23 00:41 | -25.19207 | -65.42271 | 9187 ft | 284 kts | 331° |
| 2026-04-23 00:42 | -25.17522 | -65.43363 | 8878 ft | 276 kts | 331° |
| 2026-04-23 00:42 | -25.15914 | -65.44408 | 8670 ft | 261 kts | 330° |
| 2026-04-23 00:42 | -25.14396 | -65.45397 | 8418 ft | 248 kts | 330° |
| 2026-04-23 00:42 | -25.12949 | -65.46342 | 8164 ft | 237 kts | 330° |
| 2026-04-23 00:43 | -25.11586 | -65.47229 | 7947 ft | 220 kts | 330° |
| 2026-04-23 00:43 | -25.10318 | -65.48055 | 7718 ft | 205 kts | 330° |
| 2026-04-23 00:43 | -25.09132 | -65.48827 | 7517 ft | 192 kts | 330° |
| 2026-04-23 00:43 | -25.08022 | -65.49549 | 7325 ft | 180 kts | 330° |
| 2026-04-23 00:44 | -25.06971 | -65.50234 | 7174 ft | 173 kts | 330° |
| 2026-04-23 00:44 | -25.05939 | -65.50906 | 7013 ft | 172 kts | 330° |
| 2026-04-23 00:44 | -25.04912 | -65.51574 | 6854 ft | 172 kts | 330° |
| 2026-04-23 00:44 | -25.03873 | -65.52148 | 6732 ft | 162 kts | 342° |
| 2026-04-23 00:45 | -25.02749 | -65.52331 | 6714 ft | 167 kts | 360° |
| 2026-04-23 00:45 | -25.01581 | -65.52190 | 6724 ft | 171 kts | 11° |
| 2026-04-23 00:45 | -25.00421 | -65.51904 | 6675 ft | 172 kts | 12° |
| 2026-04-23 00:45 | -24.99257 | -65.51629 | 6464 ft | 171 kts | 12° |
| 2026-04-23 00:46 | -24.98093 | -65.51370 | 6264 ft | 171 kts | 11° |
| 2026-04-23 00:46 | -24.96936 | -65.51115 | 6046 ft | 170 kts | 11° |
| 2026-04-23 00:46 | -24.95783 | -65.50861 | 5829 ft | 169 kts | 11° |
| 2026-04-23 00:46 | -24.94638 | -65.50610 | 5604 ft | 167 kts | 11° |
| 2026-04-23 00:47 | -24.93525 | -65.50364 | 5384 ft | 161 kts | 11° |
| 2026-04-23 00:47 | -24.92435 | -65.50125 | 5174 ft | 160 kts | 11° |
| 2026-04-23 00:47 | -24.91351 | -65.49886 | 4966 ft | 159 kts | 11° |
| 2026-04-23 00:47 | -24.90271 | -65.49649 | 4766 ft | 158 kts | 12° |
| 2026-04-23 00:48 | -24.89196 | -65.49414 | 4550 ft | 157 kts | 12° |
| 2026-04-23 00:48 | -24.88134 | -65.49179 | 4298 ft | 156 kts | 11° |
| 2026-04-23 00:48 | -24.87082 | -65.48950 | 4044 ft | 150 kts | 11° |
| 2026-04-23 00:48 | -24.86166 | -65.48745 | 4021 ft | 120 kts | 10° |
| 2026-04-23 00:49 | -24.85603 | -65.48627 | 4021 ft | 47 kts | 11° |
| 2026-04-23 00:49 | -24.85315 | -65.48567 | 4019 ft | 39 kts | 10° |
| 2026-04-23 00:49 | -24.85126 | -65.48525 | 4020 ft | 15 kts | 12° |
| 2026-04-23 00:49 | -24.85047 | -65.48508 | 4020 ft | 10 kts | 10° |
| 2026-04-23 00:50 | -24.84979 | -65.48494 | 4020 ft | 10 kts | 11° |
| 2026-04-23 00:50 | -24.84910 | -65.48479 | 4021 ft | 10 kts | 11° |
| 2026-04-23 00:50 | -24.84837 | -65.48463 | 4021 ft | 11 kts | 11° |
| 2026-04-23 00:50 | -24.84757 | -65.48445 | 4020 ft | 13 kts | 12° |
| 2026-04-23 00:51 | -24.84684 | -65.48397 | 4019 ft | 10 kts | 38° |
| 2026-04-23 00:51 | -24.84632 | -65.48349 | 4019 ft | 10 kts | 44° |
| 2026-04-23 00:51 | -24.84595 | -65.48284 | 4020 ft | 10 kts | 69° |
| 2026-04-23 00:51 | -24.84573 | -65.48206 | 4020 ft | 11 kts | 71° |
| 2026-04-23 00:52 | -24.84548 | -65.48126 | 4020 ft | 12 kts | 72° |
| 2026-04-23 00:52 | -24.84522 | -65.48039 | 4020 ft | 12 kts | 71° |
| 2026-04-23 00:52 | -24.84506 | -65.47962 | 4020 ft | 9 kts | 88° |
| 2026-04-23 00:52 | -24.84514 | -65.47894 | 4019 ft | 9 kts | 109° |
| 2026-04-23 00:53 | -24.84527 | -65.47854 | 4020 ft | 0 kts | 81° |
| 2026-04-23 00:53 | -24.84526 | -65.47849 | 4020 ft | 2 kts | 72° |
| 2026-04-23 00:53 | -24.84511 | -65.47832 | 4020 ft | 1 kts | 32° |
| 2026-04-23 00:53 | -24.84501 | -65.47827 | 4020 ft | 2 kts | 23° |
| 2026-04-23 00:54 | -24.84499 | -65.47826 | 4020 ft | 0 kts | 22° |